Time;durP1;ratioP1;P1;durP2;ratioP2;P2;SDS_P1;SDS_P2;PMS_P1;PMS_P2;Temp;Humidity;BMP_temperature;BMP_pressure;BME280_temperature;BME280_humidity;BME280_pressure;Samples;Min_cycle;Max_cycle;Signal;HPM_P1;HPM_P2
2023/04/02 00:00:11;;;;;;;;;12.75;12.00;;;;;7.02;78.46;101287.09;4985920;28;11202;-68
2023/04/02 00:03:09;;;;;;;;;13.00;13.00;;;;;7.00;78.88;101299.78;4977973;28;11096;-70
2023/04/02 00:05:35;;;;;;;;;15.25;13.00;;;;;7.00;77.87;101297.13;4977532;28;11134;-69
2023/04/02 00:08:09;;;;;;;;;16.75;13.25;;;;;6.92;78.11;101308.63;4975130;28;11237;-70
2023/04/02 00:10:46;;;;;;;;;14.25;13.75;;;;;6.90;77.83;101302.59;4991229;28;11485;-70
2023/04/02 00:13:15;;;;;;;;;14.25;11.50;;;;;6.89;77.79;101303.63;4994452;28;11242;-70
2023/04/02 00:15:45;;;;;;;;;17.50;13.00;;;;;6.88;78.80;101307.25;4976792;28;11248;-70
2023/04/02 00:18:15;;;;;;;;;19.75;16.75;;;;;6.95;78.86;101318.19;4975022;28;11199;-70
2023/04/02 00:20:47;;;;;;;;;14.75;14.00;;;;;7.00;77.71;101323.88;4991548;28;12239;-70
2023/04/02 00:23:14;;;;;;;;;12.50;11.00;;;;;7.00;78.38;101317.69;4994149;28;11491;-70
2023/04/02 00:25:44;;;;;;;;;14.00;13.00;;;;;7.05;78.40;101323.41;4976748;28;11322;-69
2023/04/02 00:28:17;;;;;;;;;17.50;13.00;;;;;6.87;76.48;101328.84;4974751;28;11258;-69
2023/04/02 00:30:51;;;;;;;;;12.75;12.75;;;;;6.84;78.06;101331.81;4958926;28;11520;-70
2023/04/02 00:33:21;;;;;;;;;15.50;12.50;;;;;6.89;78.13;101333.06;4974778;28;11129;-69
2023/04/02 00:35:49;;;;;;;;;8.75;8.25;;;;;6.95;77.84;101344.94;4991961;28;11049;-70
2023/04/02 00:38:34;;;;;;;;;16.00;14.75;;;;;6.93;77.05;101342.44;4994213;28;10979;-69
2023/04/02 00:41:03;;;;;;;;;20.50;13.00;;;;;6.87;77.06;101355.59;4974506;28;11347;-69
2023/04/02 00:43:35;;;;;;;;;14.50;12.00;;;;;6.86;77.59;101354.75;4974749;28;11913;-69
2023/04/02 00:46:15;;;;;;;;;11.25;10.75;;;;;6.92;77.93;101364.81;4974194;28;11505;-69
2023/04/02 00:49:08;;;;;;;;;11.00;11.00;;;;;6.87;77.82;101369.81;4957365;28;11103;-70
2023/04/02 00:51:40;;;;;;;;;9.75;9.50;;;;;6.84;77.43;101370.13;4974269;28;11444;-70
2023/04/02 00:54:14;;;;;;;;;10.50;8.50;;;;;6.85;77.70;101374.50;4961324;28;11478;-67
2023/04/02 00:56:47;;;;;;;;;11.00;10.50;;;;;6.87;77.56;101377.84;4993690;28;10976;-70
2023/04/02 00:59:30;;;;;;;;;14.50;12.00;;;;;6.91;77.60;101376.53;4993053;28;11134;-67
2023/04/02 01:02:18;;;;;;;;;13.75;11.75;;;;;6.91;76.92;101381.88;4976203;28;11105;-68
2023/04/02 01:04:56;;;;;;;;;19.75;14.25;;;;;6.85;76.86;101395.06;4983693;28;11228;-69
2023/04/02 01:07:41;;;;;;;;;11.00;10.75;;;;;6.68;76.34;101397.63;4974127;28;11299;-69
2023/04/02 01:10:22;;;;;;;;;11.00;10.75;;;;;6.59;77.22;101395.84;4968918;28;12013;-69
2023/04/02 01:13:12;;;;;;;;;13.50;9.25;;;;;6.57;75.55;101397.03;4993449;28;11248;-70
2023/04/02 01:15:56;;;;;;;;;9.00;9.00;;;;;6.50;76.43;101406.66;4975992;28;11424;-70
2023/04/02 01:18:49;;;;;;;;;9.25;8.00;;;;;6.54;77.04;101408.88;4984228;28;11475;-68
2023/04/02 01:21:42;;;;;;;;;14.00;12.25;;;;;6.53;77.22;101415.22;4993246;28;11265;-70
2023/04/02 01:24:13;;;;;;;;;8.00;8.00;;;;;6.54;76.53;101429.41;4971861;28;11494;-68
2023/04/02 01:26:56;;;;;;;;;10.25;9.50;;;;;6.47;76.35;101423.00;4956354;28;11472;-69
2023/04/02 01:29:38;;;;;;;;;11.00;10.00;;;;;6.48;77.09;101427.34;4962682;28;12309;-70
2023/04/02 01:32:10;;;;;;;;;9.50;9.50;;;;;6.43;76.79;101436.66;4975443;28;11548;-69
2023/04/02 01:34:37;;;;;;;;;9.25;9.25;;;;;6.49;76.40;101434.41;4982448;28;11186;-70
2023/04/02 01:37:21;;;;;;;;;11.25;11.25;;;;;6.42;77.23;101429.66;4992511;28;11495;-69
2023/04/02 01:39:57;;;;;;;;;12.25;12.25;;;;;6.43;76.29;101439.34;4982258;28;11258;-69
2023/04/02 01:42:50;;;;;;;;;13.25;11.75;;;;;6.39;77.01;101443.31;4972909;28;12054;-69
2023/04/02 01:45:20;;;;;;;;;14.75;14.50;;;;;6.32;76.66;101452.09;4969116;28;11569;-69
2023/04/02 01:47:48;;;;;;;;;11.75;11.75;;;;;6.33;77.42;101451.97;4974819;28;11609;-69
2023/04/02 01:50:30;;;;;;;;;12.50;12.50;;;;;6.33;77.40;101462.66;4971527;28;11508;-70
2023/04/02 01:53:04;;;;;;;;;12.50;11.00;;;;;6.24;76.53;101463.56;4955208;28;11489;-67
2023/04/02 01:55:42;;;;;;;;;12.00;12.00;;;;;6.21;77.64;101468.38;4970654;28;11463;-69
2023/04/02 01:58:11;;;;;;;;;9.00;9.00;;;;;6.30;77.68;101473.66;4974365;28;11494;-70
2023/04/02 02:00:49;;;;;;;;;14.00;13.25;;;;;6.24;77.57;101468.91;4957945;28;11309;-68
2023/04/02 02:03:18;;;;;;;;;12.50;12.25;;;;;6.28;77.54;101490.81;4954652;28;11483;-69
2023/04/02 02:05:45;;;;;;;;;11.50;9.00;;;;;6.20;77.01;101483.56;4972509;28;11454;-69
2023/04/02 02:08:30;;;;;;;;;11.00;8.75;;;;;6.15;77.30;101491.19;4991702;28;11429;-69
2023/04/02 02:10:57;;;;;;;;;14.25;13.75;;;;;6.13;76.98;101495.84;4991344;28;11419;-69
2023/04/02 02:13:24;;;;;;;;;13.50;10.50;;;;;6.10;77.18;101496.13;4991892;28;11451;-67
2023/04/02 02:15:51;;;;;;;;;8.00;7.00;;;;;6.07;76.98;101501.78;4990958;28;11442;-69
2023/04/02 02:18:22;;;;;;;;;14.75;12.25;;;;;5.97;77.00;101501.84;4974177;28;11444;-69
2023/04/02 02:20:51;;;;;;;;;11.00;11.00;;;;;5.98;76.95;101506.19;4973656;28;11497;-69
2023/04/02 02:23:18;;;;;;;;;16.50;10.75;;;;;5.99;76.49;101515.88;4954892;28;11508;-69
2023/04/02 02:25:45;;;;;;;;;9.50;9.50;;;;;5.92;76.45;101504.13;4956319;28;11515;-69
2023/04/02 02:28:31;;;;;;;;;15.25;13.25;;;;;5.91;76.93;101516.59;4974250;28;12247;-69
2023/04/02 02:31:02;;;;;;;;;16.00;11.00;;;;;5.95;77.71;101522.50;4972504;28;11461;-69
2023/04/02 02:33:36;;;;;;;;;9.75;9.75;;;;;5.99;77.49;101526.56;4955000;28;12174;-69
2023/04/02 02:36:32;;;;;;;;;10.25;10.25;;;;;6.02;77.34;101533.47;4973602;28;11549;-68
2023/04/02 02:39:12;;;;;;;;;12.25;10.00;;;;;6.01;76.86;101550.50;4970207;28;11619;-69
2023/04/02 02:41:48;;;;;;;;;13.00;11.75;;;;;5.97;76.62;101541.06;4954712;28;11472;-69
2023/04/02 02:44:21;;;;;;;;;10.00;9.75;;;;;5.91;77.27;101548.66;4959738;28;11476;-69
2023/04/02 02:47:03;;;;;;;;;12.00;10.75;;;;;5.91;77.54;101548.66;4973712;28;11571;-69
2023/04/02 02:49:34;;;;;;;;;10.00;10.00;;;;;5.96;76.99;101558.94;4966268;28;11511;-69
2023/04/02 02:52:09;;;;;;;;;11.25;10.75;;;;;5.87;76.71;101575.81;4971801;28;11511;-69
2023/04/02 02:54:50;;;;;;;;;12.25;10.75;;;;;5.79;77.22;101570.34;4963131;28;12334;-69
2023/04/02 02:57:23;;;;;;;;;10.25;10.00;;;;;5.82;77.31;101575.41;4973943;28;11493;-69
2023/04/02 02:59:53;;;;;;;;;12.75;9.50;;;;;5.76;77.11;101576.00;4963396;28;11528;-69
2023/04/02 03:02:20;;;;;;;;;12.75;11.50;;;;;5.75;77.39;101572.47;4954377;28;11470;-68
2023/04/02 03:04:52;;;;;;;;;15.00;12.75;;;;;5.68;77.81;101592.75;4963560;28;12190;-69
2023/04/02 03:07:24;;;;;;;;;10.50;10.50;;;;;5.67;77.74;101601.72;4973166;28;11477;-68
2023/04/02 03:10:11;;;;;;;;;12.50;11.00;;;;;5.67;77.54;101607.94;4970315;28;11469;-68
2023/04/02 03:12:51;;;;;;;;;14.50;11.25;;;;;5.63;77.75;101605.66;4954207;28;11544;-68
2023/04/02 03:15:41;;;;;;;;;12.00;10.25;;;;;5.63;77.03;101613.69;4968130;28;11576;-69
2023/04/02 03:18:42;;;;;;;;;8.50;8.25;;;;;5.57;76.96;101611.59;4991016;28;11478;-68
2023/04/02 03:21:32;;;;;;;;;16.25;14.00;;;;;5.53;77.33;101624.38;4950842;28;12167;-70
2023/04/02 03:24:03;;;;;;;;;15.50;13.50;;;;;5.51;77.17;101633.50;4962267;28;11518;-69
2023/04/02 03:26:35;;;;;;;;;22.50;16.25;;;;;5.54;76.64;101633.22;4965691;28;11485;-68
2023/04/02 03:29:02;;;;;;;;;11.25;8.00;;;;;5.45;77.41;101634.94;4957783;28;11571;-68
2023/04/02 03:31:35;;;;;;;;;10.50;8.75;;;;;5.46;76.81;101641.94;4973463;28;12193;-70
2023/04/02 03:34:27;;;;;;;;;10.00;8.00;;;;;5.48;76.98;101641.81;4969207;28;11451;-68
2023/04/02 03:37:04;;;;;;;;;14.75;13.50;;;;;5.46;76.85;101648.13;4953904;28;11597;-68
2023/04/02 03:39:36;;;;;;;;;9.50;8.25;;;;;5.38;76.89;101658.66;4961694;28;11473;-70
2023/04/02 03:42:16;;;;;;;;;13.00;11.75;;;;;5.29;76.40;101658.69;4973329;28;11462;-70
2023/04/02 03:44:50;;;;;;;;;13.50;10.50;;;;;5.19;76.65;101677.38;4963735;28;11469;-69
2023/04/02 03:47:28;;;;;;;;;12.50;11.00;;;;;5.20;76.66;101679.03;4953701;28;12183;-70
2023/04/02 03:50:00;;;;;;;;;11.50;11.50;;;;;5.19;76.59;101691.56;4964382;28;11503;-70
2023/04/02 03:52:28;;;;;;;;;10.00;7.00;;;;;5.18;75.81;101686.34;4973288;28;11432;-70
2023/04/02 03:55:00;;;;;;;;;13.25;10.25;;;;;5.22;76.29;101695.75;4969678;28;11470;-70
2023/04/02 03:58:05;;;;;;;;;9.50;8.00;;;;;5.25;75.69;101691.97;4953534;28;11476;-70
2023/04/02 04:00:46;;;;;;;;;9.50;8.00;;;;;5.25;76.71;101705.31;4969167;28;11439;-69
2023/04/02 04:03:17;;;;;;;;;12.00;10.50;;;;;5.25;76.42;101706.16;4990439;28;11442;-70
2023/04/02 04:06:03;;;;;;;;;11.00;9.25;;;;;5.31;75.95;101712.78;4954994;28;11485;-69
2023/04/02 04:08:41;;;;;;;;;8.75;8.25;;;;;5.27;76.92;101709.53;4971554;28;11572;-66
2023/04/02 04:11:12;;;;;;;;;13.25;10.00;;;;;5.28;75.63;101727.25;4990511;28;11407;-66
2023/04/02 04:13:56;;;;;;;;;12.00;10.00;;;;;5.20;75.62;101724.41;4972211;28;11455;-66
2023/04/02 04:16:31;;;;;;;;;13.50;8.00;;;;;5.13;76.35;101737.47;4953353;28;11484;-66
2023/04/02 04:19:03;;;;;;;;;10.25;7.25;;;;;5.12;76.52;101756.28;4973678;28;11567;-66
2023/04/02 04:21:38;;;;;;;;;11.75;11.25;;;;;5.06;75.32;101756.81;4972762;28;11460;-65
2023/04/02 04:24:24;;;;;;;;;13.00;11.00;;;;;4.96;75.36;101764.81;4967000;28;11549;-68
2023/04/02 04:27:03;;;;;;;;;9.00;8.75;;;;;4.94;76.42;101762.28;4954567;28;11592;-67
2023/04/02 04:29:44;;;;;;;;;11.50;10.00;;;;;4.98;75.49;101768.16;4964815;28;12328;-65
2023/04/02 04:32:26;;;;;;;;;19.25;13.75;;;;;4.83;74.50;101775.72;4976473;28;12219;-63
2023/04/02 04:35:24;;;;;;;;;11.00;7.50;;;;;4.79;74.83;101782.28;4965201;28;11590;-66
2023/04/02 04:37:59;;;;;;;;;10.75;10.00;;;;;4.77;73.48;101794.06;4956723;28;11557;-66
2023/04/02 04:40:33;;;;;;;;;14.00;10.25;;;;;4.67;73.21;101804.69;4971586;28;12201;-64
2023/04/02 04:43:11;;;;;;;;;10.75;10.75;;;;;4.68;73.25;101798.38;4976200;28;11552;-66
2023/04/02 04:45:53;;;;;;;;;14.50;8.75;;;;;4.62;73.13;101809.59;4959118;28;11582;-65
2023/04/02 04:48:27;;;;;;;;;11.00;11.00;;;;;4.55;71.97;101824.41;4956640;28;11475;-65
2023/04/02 04:51:02;;;;;;;;;10.25;10.25;;;;;4.41;72.51;101817.56;4975449;28;11465;-66
2023/04/02 04:53:30;;;;;;;;;7.75;5.50;;;;;4.44;73.33;101828.81;4976011;28;11466;-65
2023/04/02 04:56:02;;;;;;;;;10.25;9.25;;;;;4.55;73.78;101840.41;4975615;28;11433;-66
2023/04/02 04:59:12;;;;;;;;;8.75;8.00;;;;;4.50;72.41;101832.81;4975358;28;11459;-66
2023/04/02 05:01:44;;;;;;;;;12.25;10.00;;;;;4.43;71.32;101839.63;4941910;28;11472;-66
2023/04/02 05:04:15;;;;;;;;;7.00;7.00;;;;;4.37;71.98;101840.97;4974942;28;11444;-66
2023/04/02 05:06:54;;;;;;;;;10.25;7.50;;;;;4.41;71.79;101857.56;4975447;28;11424;-66
2023/04/02 05:09:44;;;;;;;;;9.75;7.75;;;;;4.30;72.38;101853.13;4972317;28;11521;-65
2023/04/02 05:12:25;;;;;;;;;11.00;7.75;;;;;4.29;71.73;101861.25;4956339;28;11509;-66
2023/04/02 05:14:58;;;;;;;;;9.75;6.25;;;;;4.22;72.41;101872.44;4966789;28;11456;-65
2023/04/02 05:17:32;;;;;;;;;8.25;8.25;;;;;4.22;71.88;101875.09;4975473;28;11562;-65
2023/04/02 05:20:24;;;;;;;;;12.00;7.50;;;;;4.15;71.66;101876.56;4964041;28;11445;-66
2023/04/02 05:23:03;;;;;;;;;4.00;4.00;;;;;4.13;70.97;101883.00;4956177;28;12172;-64
2023/04/02 05:25:31;;;;;;;;;8.00;8.00;;;;;4.06;71.09;101889.81;4971099;28;11566;-65
2023/04/02 05:28:17;;;;;;;;;13.50;10.50;;;;;4.07;72.23;101886.19;4975274;28;11430;-65
2023/04/02 05:30:55;;;;;;;;;10.50;8.00;;;;;4.07;71.53;101892.34;4941950;28;11585;-66
2023/04/02 05:33:26;;;;;;;;;8.00;8.00;;;;;4.13;72.33;101889.19;4972054;28;11512;-66
2023/04/02 05:36:21;;;;;;;;;9.50;5.00;;;;;4.18;72.36;101907.47;4974167;28;11437;-65
2023/04/02 05:38:53;;;;;;;;;7.75;7.75;;;;;4.19;72.12;101927.81;4964819;28;11438;-65
2023/04/02 05:41:37;;;;;;;;;6.75;6.75;;;;;4.22;71.81;101915.06;4940883;28;11462;-66
2023/04/02 05:44:13;;;;;;;;;8.50;8.00;;;;;4.23;71.81;101929.25;4976618;28;11435;-65
2023/04/02 05:46:48;;;;;;;;;4.50;4.50;;;;;4.19;70.52;101939.31;4974786;28;11470;-65
2023/04/02 05:49:38;;;;;;;;;11.00;7.75;;;;;4.10;70.04;101944.56;4971539;28;11548;-65
2023/04/02 05:52:15;;;;;;;;;8.75;8.00;;;;;4.05;71.19;101957.38;4972938;28;11461;-65
2023/04/02 05:54:53;;;;;;;;;10.50;7.00;;;;;4.16;71.89;101960.03;4955887;28;11440;-65
2023/04/02 05:57:29;;;;;;;;;8.00;7.00;;;;;4.14;70.21;101970.81;4971619;28;11501;-65
2023/04/02 06:00:19;;;;;;;;;8.00;7.00;;;;;4.08;70.95;101984.63;4968455;28;11251;-68
2023/04/02 06:02:55;;;;;;;;;5.00;5.00;;;;;4.07;71.16;101974.94;4974804;28;11464;-66
2023/04/02 06:05:27;;;;;;;;;7.50;7.50;;;;;4.07;70.99;101992.75;4970918;28;11551;-65
2023/04/02 06:08:04;;;;;;;;;4.25;3.00;;;;;3.98;69.82;101989.00;4956913;28;11579;-65
2023/04/02 06:10:42;;;;;;;;;7.75;7.75;;;;;4.03;71.17;102008.13;4971896;28;11494;-65
2023/04/02 06:13:16;;;;;;;;;13.50;8.50;;;;;3.92;69.85;102008.97;4992287;28;11513;-68
2023/04/02 06:15:45;;;;;;;;;8.50;8.50;;;;;3.85;71.17;102013.13;4957828;28;11493;-67
2023/04/02 06:18:22;;;;;;;;;6.50;6.50;;;;;3.82;71.34;102026.69;4957169;28;11501;-66
2023/04/02 06:20:50;;;;;;;;;8.50;7.00;;;;;3.86;71.25;102024.63;4975766;28;11514;-64
2023/04/02 06:23:24;;;;;;;;;5.50;5.00;;;;;3.93;71.45;102034.66;4994367;28;12256;-65
2023/04/02 06:26:03;;;;;;;;;7.25;7.00;;;;;3.91;70.68;102033.94;4956520;28;12300;-64
2023/04/02 06:28:54;;;;;;;;;6.75;6.75;;;;;3.96;71.31;102034.41;4955724;28;11598;-66
2023/04/02 06:31:27;;;;;;;;;5.00;5.00;;;;;3.86;70.63;102048.59;4974709;28;11450;-64
2023/04/02 06:33:55;;;;;;;;;8.00;7.00;;;;;3.74;70.96;102052.22;4971737;28;11491;-65
2023/04/02 06:36:26;;;;;;;;;4.75;4.75;;;;;3.67;71.46;102063.34;4954868;28;11459;-66
2023/04/02 06:39:01;;;;;;;;;11.00;5.00;;;;;3.62;71.73;102065.50;4957999;28;12264;-67
2023/04/02 06:41:29;;;;;;;;;7.00;5.00;;;;;3.62;71.36;102070.84;4974150;28;11475;-64
2023/04/02 06:44:21;;;;;;;;;5.50;5.00;;;;;3.64;72.07;102073.38;4984235;28;11474;-66
2023/04/02 06:47:42;;;;;;;;;3.50;3.00;;;;;3.64;72.31;102086.69;4950510;28;11685;-66
2023/04/02 06:50:22;;;;;;;;;7.50;7.50;;;;;3.68;72.31;102088.16;4963715;28;11567;-67
2023/04/02 06:52:53;;;;;;;;;11.50;7.25;;;;;3.68;71.33;102093.47;4983734;28;11459;-65
2023/04/02 06:55:48;;;;;;;;;8.00;7.00;;;;;3.57;71.17;102090.81;4973511;28;11496;-65
2023/04/02 06:58:20;;;;;;;;;5.50;5.50;;;;;3.45;72.03;102103.25;4973516;28;11601;-66
2023/04/02 07:00:49;;;;;;;;;6.50;4.75;;;;;3.47;72.45;102104.81;4955956;28;11468;-65
2023/04/02 07:03:42;;;;;;;;;7.00;5.00;;;;;3.44;69.78;102107.72;4968597;28;11466;-68
2023/04/02 07:06:20;;;;;;;;;8.00;7.00;;;;;3.37;70.65;102117.13;4973847;28;12175;-68
2023/04/02 07:08:49;;;;;;;;;6.25;6.25;;;;;3.28;70.79;102112.50;4971623;28;11463;-65
2023/04/02 07:11:20;;;;;;;;;7.75;6.50;;;;;3.25;71.24;102120.72;4954663;28;11513;-67
2023/04/02 07:13:49;;;;;;;;;11.25;8.75;;;;;3.27;71.22;102132.09;4956085;28;11503;-66
2023/04/02 07:16:20;;;;;;;;;9.00;7.50;;;;;3.34;72.45;102130.66;4973528;28;11520;-66
2023/04/02 07:18:48;;;;;;;;;7.00;7.00;;;;;3.42;70.74;102130.09;4971640;28;12355;-67
2023/04/02 07:21:14;;;;;;;;;7.00;7.00;;;;;3.37;70.80;102146.41;4954273;28;11508;-67
2023/04/02 07:23:41;;;;;;;;;8.00;5.00;;;;;3.31;71.39;102159.31;4954996;28;11489;-67
2023/04/02 07:26:13;;;;;;;;;5.00;5.00;;;;;3.28;71.15;102163.06;4990421;28;11500;-66
2023/04/02 07:28:39;;;;;;;;;7.00;7.00;;;;;3.26;70.09;102166.81;4989807;28;11493;-67
2023/04/02 07:31:24;;;;;;;;;7.00;7.00;;;;;3.24;70.47;102166.88;4971585;28;11579;-66
2023/04/02 07:33:56;;;;;;;;;2.00;2.00;;;;;3.29;70.48;102175.41;4973531;28;11531;-68
2023/04/02 07:36:24;;;;;;;;;4.50;2.00;;;;;3.52;71.41;102178.16;4973241;28;11454;-67
2023/04/02 07:38:51;;;;;;;;;7.00;5.50;;;;;3.63;70.35;102178.19;4988318;28;11463;-66
2023/04/02 07:41:18;;;;;;;;;7.25;5.00;;;;;3.58;69.20;102188.34;4971391;28;11463;-66
2023/04/02 07:43:45;;;;;;;;;7.00;5.50;;;;;3.55;69.76;102207.22;4955290;28;11526;-66
2023/04/02 07:46:15;;;;;;;;;8.00;4.75;;;;;3.49;69.58;102210.34;4990682;28;11520;-66
2023/04/02 07:48:43;;;;;;;;;5.00;5.00;;;;;3.39;68.56;102195.03;4989504;28;11421;-66
2023/04/02 07:51:20;;;;;;;;;6.50;6.50;;;;;3.44;68.82;102200.88;4971454;28;12120;-68
2023/04/02 07:53:53;;;;;;;;;4.75;4.75;;;;;3.52;68.72;102218.06;4955724;28;11479;-67
2023/04/02 07:56:22;;;;;;;;;5.00;5.00;;;;;3.52;68.49;102215.41;4990501;28;11555;-66
2023/04/02 07:58:48;;;;;;;;;6.25;5.00;;;;;3.52;68.80;102216.25;4988885;28;11578;-66
2023/04/02 08:01:25;;;;;;;;;7.00;4.75;;;;;3.56;68.58;102224.88;4990394;28;11534;-65
2023/04/02 08:03:53;;;;;;;;;4.25;4.25;;;;;3.57;68.46;102226.59;4974359;28;11627;-65
2023/04/02 08:06:21;;;;;;;;;5.00;5.00;;;;;3.66;68.55;102218.75;4974663;28;11497;-66
2023/04/02 08:08:48;;;;;;;;;5.25;4.25;;;;;3.78;67.69;102224.13;4958980;28;11526;-65
2023/04/02 08:11:15;;;;;;;;;7.00;4.00;;;;;3.76;67.14;102224.22;4994459;28;11451;-66
2023/04/02 08:13:42;;;;;;;;;3.50;3.50;;;;;3.89;68.36;102232.13;4993054;28;11430;-66
2023/04/02 08:16:08;;;;;;;;;5.00;5.00;;;;;4.01;67.96;102222.34;4957232;28;11465;-67
2023/04/02 08:18:36;;;;;;;;;4.00;4.00;;;;;4.09;67.54;102231.47;4974389;28;11424;-67
2023/04/02 08:21:07;;;;;;;;;7.00;5.00;;;;;4.13;67.29;102235.59;4974354;28;11443;-66
2023/04/02 08:23:34;;;;;;;;;4.25;2.00;;;;;4.11;66.95;102242.00;4974711;28;11434;-67
2023/04/02 08:26:02;;;;;;;;;4.00;4.00;;;;;4.11;66.99;102250.84;4974463;28;11439;-66
2023/04/02 08:28:28;;;;;;;;;4.00;4.00;;;;;3.95;67.15;102253.84;4957218;28;11464;-67
2023/04/02 08:30:55;;;;;;;;;3.50;3.50;;;;;3.83;67.06;102261.91;4976301;28;11478;-67
2023/04/02 08:33:21;;;;;;;;;3.00;3.00;;;;;3.86;67.53;102262.53;4993776;28;11412;-66
2023/04/02 08:35:49;;;;;;;;;5.50;5.00;;;;;3.94;67.67;102270.78;4992838;28;11449;-65
2023/04/02 08:38:19;;;;;;;;;6.75;5.00;;;;;4.10;67.63;102281.13;4993645;28;11428;-66
2023/04/02 08:40:51;;;;;;;;;8.25;3.00;;;;;4.20;67.93;102278.59;4975955;28;11462;-66
2023/04/02 08:43:27;;;;;;;;;7.00;5.25;;;;;4.41;66.65;102271.63;4974185;28;11471;-67
2023/04/02 08:45:57;;;;;;;;;7.50;5.00;;;;;4.57;66.30;102276.59;4992603;28;12170;-66
2023/04/02 08:48:23;;;;;;;;;6.00;6.00;;;;;4.64;65.21;102287.66;4993734;28;11535;-67
2023/04/02 08:50:50;;;;;;;;;4.25;4.00;;;;;4.58;64.42;102293.47;4975012;28;12198;-66
2023/04/02 08:53:26;;;;;;;;;4.25;3.50;;;;;4.58;64.31;102296.16;4974153;28;11591;-67
2023/04/02 08:56:04;;;;;;;;;2.00;2.00;;;;;4.64;63.86;102298.31;4991949;28;11430;-67
2023/04/02 08:58:42;;;;;;;;;4.50;4.50;;;;;4.59;63.04;102301.34;4993135;28;11432;-69
2023/04/02 09:01:20;;;;;;;;;5.75;4.50;;;;;4.57;63.07;102308.59;4956614;28;11477;-67
2023/04/02 09:03:50;;;;;;;;;7.25;6.00;;;;;4.52;63.57;102312.59;4974094;28;11444;-66
2023/04/02 09:06:18;;;;;;;;;4.25;4.25;;;;;4.67;64.81;102330.09;4973436;28;11451;-66
2023/04/02 09:08:47;;;;;;;;;2.00;2.00;;;;;4.96;64.72;102330.47;4975319;28;11573;-66
2023/04/02 09:11:20;;;;;;;;;8.00;5.25;;;;;5.37;62.95;102335.19;4993284;28;11501;-67
2023/04/02 09:13:53;;;;;;;;;3.00;2.00;;;;;5.57;61.95;102335.41;4990965;28;11495;-67
2023/04/02 09:16:35;;;;;;;;;5.00;5.00;;;;;5.61;61.17;102337.69;4955987;28;11454;-67
2023/04/02 09:19:13;;;;;;;;;4.00;4.00;;;;;5.86;61.85;102341.88;4977074;28;11437;-67
2023/04/02 09:21:47;;;;;;;;;4.75;4.75;;;;;5.92;60.40;102338.72;4975534;28;11450;-69
2023/04/02 09:24:13;;;;;;;;;6.50;4.75;;;;;5.97;60.62;102349.03;4987176;28;11373;-69
2023/04/02 09:26:40;;;;;;;;;3.50;3.50;;;;;6.07;60.07;102343.75;4973199;28;11435;-66
2023/04/02 09:29:06;;;;;;;;;4.00;4.00;;;;;5.96;59.75;102358.03;4977575;28;11224;-65
2023/04/02 09:31:38;;;;;;;;;4.00;4.00;;;;;5.70;60.64;102358.31;4992745;28;11470;-65
2023/04/02 09:34:27;;;;;;;;;5.50;5.00;;;;;5.70;60.30;102360.13;4988259;28;11476;-66
2023/04/02 09:36:54;;;;;;;;;6.00;6.00;;;;;5.87;61.42;102372.94;4973188;28;11555;-66
2023/04/02 09:39:25;;;;;;;;;4.25;4.00;;;;;6.07;60.44;102366.00;4962128;28;11443;-67
2023/04/02 09:41:52;;;;;;;;;4.00;4.00;;;;;6.29;60.01;102369.56;4992416;28;11125;-66
2023/04/02 09:44:31;;;;;;;;;5.00;4.25;;;;;6.26;59.77;102368.00;4984581;28;11022;-67
2023/04/02 09:47:21;;;;;;;;;4.00;4.00;;;;;6.40;59.82;102372.16;4972931;28;11178;-67
2023/04/02 09:49:48;;;;;;;;;4.00;1.75;;;;;6.48;59.79;102363.50;4982668;28;11066;-66
2023/04/02 09:52:28;;;;;;;;;4.00;4.00;;;;;6.72;59.91;102373.94;4992396;28;11067;-68
2023/04/02 09:55:21;;;;;;;;;4.00;2.00;;;;;6.83;58.07;102388.09;4980734;28;10913;-69
2023/04/02 09:57:50;;;;;;;;;1.50;1.50;;;;;6.76;56.71;102386.91;4955641;28;10847;-65
2023/04/02 10:00:21;;;;;;;;;3.00;2.00;;;;;6.70;58.65;102395.50;4986096;28;11007;-67
2023/04/02 10:03:12;;;;;;;;;1.00;1.00;;;;;6.68;58.31;102398.31;4992103;28;10747;-66
2023/04/02 10:05:40;;;;;;;;;1.00;1.00;;;;;6.66;57.29;102399.41;4974601;28;11511;-65
2023/04/02 10:08:19;;;;;;;;;0.25;0.25;;;;;6.75;58.09;102393.25;4972851;28;10914;-67
2023/04/02 10:10:53;;;;;;;;;4.50;1.50;;;;;6.90;58.77;102399.13;4972440;28;10818;-66
2023/04/02 10:13:31;;;;;;;;;0.50;0.50;;;;;7.11;57.66;102393.75;4991889;28;10851;-67
2023/04/02 10:16:04;;;;;;;;;1.00;1.00;;;;;7.21;57.48;102417.88;4991082;28;10878;-66
2023/04/02 10:18:46;;;;;;;;;0.75;0.00;;;;;7.08;56.83;102415.44;4991721;28;10725;-67
2023/04/02 10:21:18;;;;;;;;;1.00;1.00;;;;;6.99;56.89;102416.22;4991794;28;10669;-66
2023/04/02 10:23:44;;;;;;;;;4.00;1.75;;;;;6.98;56.03;102403.84;4989863;28;10794;-66
2023/04/02 10:26:36;;;;;;;;;1.00;0.75;;;;;6.92;58.32;102402.50;4971404;28;10696;-65
2023/04/02 10:29:37;;;;;;;;;0.25;0.25;;;;;6.94;56.44;102409.44;4975980;28;11433;-66
2023/04/02 10:32:11;;;;;;;;;0.00;0.00;;;;;6.93;57.41;102413.09;4988251;28;10833;-65
2023/04/02 10:34:57;;;;;;;;;0.00;0.00;;;;;6.99;58.02;102419.75;4972411;28;11446;-66
2023/04/02 10:37:45;;;;;;;;;2.00;1.00;;;;;7.02;57.39;102421.34;4972257;28;10741;-67
2023/04/02 10:40:58;;;;;;;;;2.00;1.00;;;;;7.05;56.75;102429.06;4967791;28;10588;-66
2023/04/02 10:43:52;;;;;;;;;0.25;0.25;;;;;7.33;57.50;102438.25;4896660;29;10699;-66
2023/04/02 10:46:30;;;;;;;;;1.00;1.00;;;;;7.52;56.12;102430.28;4896243;29;10768;-66
2023/04/02 10:49:21;;;;;;;;;2.00;2.00;;;;;7.46;55.56;102451.44;4960210;28;10773;-66
2023/04/02 10:51:59;;;;;;;;;1.00;1.00;;;;;7.38;55.70;102454.78;4972001;28;10705;-66
2023/04/02 10:54:38;;;;;;;;;0.00;0.00;;;;;7.36;55.98;102457.59;4978240;28;10743;-66
2023/04/02 10:57:21;;;;;;;;;2.00;0.00;;;;;7.58;55.91;102443.16;4973900;28;10470;-67
2023/04/02 11:00:05;;;;;;;;;2.75;1.50;;;;;7.55;55.74;102451.47;4981263;28;10694;-66
2023/04/02 11:02:47;;;;;;;;;1.00;1.00;;;;;7.47;56.06;102447.78;4971816;28;11187;-67
2023/04/02 11:05:39;;;;;;;;;0.00;0.00;;;;;7.47;54.89;102453.13;4984467;28;10841;-67
2023/04/02 11:08:16;;;;;;;;;1.00;0.00;;;;;7.52;55.99;102450.88;4990997;28;10512;-65
2023/04/02 11:10:55;;;;;;;;;1.00;1.00;;;;;7.55;55.55;102450.63;4973795;28;10586;-67
2023/04/02 11:13:30;;;;;;;;;1.75;1.75;;;;;7.63;55.97;102461.53;4971645;28;10482;-66
2023/04/02 11:15:56;;;;;;;;;1.00;1.00;;;;;7.74;55.49;102456.06;4990011;28;10529;-67
2023/04/02 11:18:33;;;;;;;;;1.00;1.00;;;;;7.88;55.32;102460.19;4990947;28;10669;-67
2023/04/02 11:21:02;;;;;;;;;1.00;1.00;;;;;7.88;55.25;102469.06;4971593;28;10483;-66
2023/04/02 11:23:34;;;;;;;;;1.00;1.00;;;;;7.98;55.51;102466.44;4954210;28;10552;-68
2023/04/02 11:26:28;;;;;;;;;4.00;0.25;;;;;8.18;55.71;102475.34;4953992;28;10471;-66
2023/04/02 11:29:27;;;;;;;;;1.00;1.00;;;;;8.24;53.68;102504.31;4971839;28;10605;-69
2023/04/02 11:32:22;;;;;;;;;2.00;1.25;;;;;7.94;55.00;102481.09;4970997;28;10463;-67
2023/04/02 11:34:49;;;;;;;;;0.75;0.75;;;;;7.86;54.68;102494.34;4971197;28;11173;-66
2023/04/02 11:37:43;;;;;;;;;1.00;1.00;;;;;7.80;54.35;102494.88;4973246;28;10469;-67
2023/04/02 11:40:09;;;;;;;;;1.25;0.75;;;;;7.81;53.70;102489.38;4958123;28;10464;-68
2023/04/02 11:42:47;;;;;;;;;1.00;1.00;;;;;7.85;55.33;102487.25;4975647;28;10487;-67
2023/04/02 11:45:22;;;;;;;;;1.50;1.00;;;;;7.93;55.32;102487.44;4954253;28;10457;-66
2023/04/02 11:47:58;;;;;;;;;1.75;1.75;;;;;8.03;56.02;102492.84;4976948;28;10622;-67
2023/04/02 11:50:30;;;;;;;;;1.00;1.00;;;;;8.09;55.60;102505.69;4961952;28;10542;-66
2023/04/02 11:53:02;;;;;;;;;1.50;1.50;;;;;8.23;55.15;102508.00;4975132;28;10395;-67
2023/04/02 11:55:29;;;;;;;;;1.75;1.75;;;;;8.18;52.86;102504.84;4990001;28;10498;-67
2023/04/02 11:58:19;;;;;;;;;2.00;2.00;;;;;8.16;53.58;102526.47;4994454;28;10444;-66
2023/04/02 12:01:04;;;;;;;;;3.00;1.00;;;;;8.09;54.57;102519.09;4976717;28;10509;-67
2023/04/02 12:04:08;;;;;;;;;1.00;1.00;;;;;8.18;54.31;102505.72;4974895;28;11350;-67
2023/04/02 12:06:41;;;;;;;;;1.00;1.00;;;;;8.44;54.99;102513.28;4993933;28;11369;-67
2023/04/02 12:09:26;;;;;;;;;3.25;1.25;;;;;8.52;53.88;102520.63;4992423;28;10672;-65